sensor_id;sensor_type;location;lat;lon;timestamp;pressure;altitude;pressure_sealevel;temperature;humidity
7888;BME280;3989;48.810;9.208;2023-03-15T00:01:57;98087.97;;;-0.55;100.00
7888;BME280;3989;48.810;9.208;2023-03-15T00:04:42;98438.97;;;1.50;100.00
7888;BME280;3989;48.810;9.208;2023-03-15T00:07:33;98358.00;;;0.93;100.00
7888;BME280;3989;48.810;9.208;2023-03-15T00:31:40;98508.25;;;1.60;100.00
7888;BME280;3989;48.810;9.208;2023-03-15T00:34:51;98519.59;;;1.61;100.00
7888;BME280;3989;48.810;9.208;2023-03-15T00:38:04;98360.94;;;0.58;100.00
7888;BME280;3989;48.810;9.208;2023-03-15T00:40:51;98516.25;;;1.58;100.00
7888;BME280;3989;48.810;9.208;2023-03-15T00:43:38;98331.09;;;0.38;100.00
7888;BME280;3989;48.810;9.208;2023-03-15T00:46:42;98272.56;;;-0.05;100.00
7888;BME280;3989;48.810;9.208;2023-03-15T00:49:24;98326.28;;;0.43;100.00
7888;BME280;3989;48.810;9.208;2023-03-15T00:55:15;98222.84;;;-0.38;100.00
7888;BME280;3989;48.810;9.208;2023-03-15T00:57:58;98538.59;;;1.64;100.00
7888;BME280;3989;48.810;9.208;2023-03-15T01:00:40;98551.88;;;1.63;100.00
7888;BME280;3989;48.810;9.208;2023-03-15T02:18:18;98437.09;;;-0.63;100.00
7888;BME280;3989;48.810;9.208;2023-03-15T02:29:30;98262.78;;;-2.03;100.00
7888;BME280;3989;48.810;9.208;2023-03-15T02:33:08;98550.28;;;-0.58;100.00
7888;BME280;3989;48.810;9.208;2023-03-15T08:34:13;98941.22;;;4.92;100.00
7888;BME280;3989;48.810;9.208;2023-03-15T09:09:19;98967.28;;;7.08;62.70
7888;BME280;3989;48.810;9.208;2023-03-15T09:11:47;98912.88;;;6.86;60.37
7888;BME280;3989;48.810;9.208;2023-03-15T09:14:18;98814.91;;;6.32;60.66
7888;BME280;3989;48.810;9.208;2023-03-15T09:17:15;98964.25;;;7.21;65.67
7888;BME280;3989;48.810;9.208;2023-03-15T09:19:58;98812.09;;;6.51;62.13
7888;BME280;3989;48.810;9.208;2023-03-15T09:22:30;98829.88;;;6.94;61.76
7888;BME280;3989;48.810;9.208;2023-03-15T09:24:58;98954.50;;;7.99;57.16
7888;BME280;3989;48.810;9.208;2023-03-15T09:27:25;98943.19;;;7.97;57.70
7888;BME280;3989;48.810;9.208;2023-03-15T09:29:51;98932.97;;;8.10;57.37
7888;BME280;3989;48.810;9.208;2023-03-15T09:32:18;98954.75;;;8.21;56.76
7888;BME280;3989;48.810;9.208;2023-03-15T09:34:45;98968.41;;;8.60;57.12
7888;BME280;3989;48.810;9.208;2023-03-15T09:37:12;98972.59;;;8.71;56.22
7888;BME280;3989;48.810;9.208;2023-03-15T09:39:38;98850.75;;;7.74;53.37
7888;BME280;3989;48.810;9.208;2023-03-15T09:42:12;98943.75;;;8.42;54.67
7888;BME280;3989;48.810;9.208;2023-03-15T09:44:45;98978.72;;;8.63;53.84
7888;BME280;3989;48.810;9.208;2023-03-15T09:47:33;98962.81;;;8.29;51.95
7888;BME280;3989;48.810;9.208;2023-03-15T09:50:08;98981.97;;;8.07;53.01
7888;BME280;3989;48.810;9.208;2023-03-15T09:52:41;98968.31;;;7.76;51.84
7888;BME280;3989;48.810;9.208;2023-03-15T09:55:12;98961.53;;;7.56;52.59
7888;BME280;3989;48.810;9.208;2023-03-15T09:57:46;98918.66;;;7.43;54.41
7888;BME280;3989;48.810;9.208;2023-03-15T10:00:18;98961.44;;;7.91;52.29
7888;BME280;3989;48.810;9.208;2023-03-15T10:02:54;98973.16;;;8.07;54.00
7888;BME280;3989;48.810;9.208;2023-03-15T10:05:27;98974.00;;;8.15;54.21
7888;BME280;3989;48.810;9.208;2023-03-15T10:07:57;98967.72;;;8.16;51.85
7888;BME280;3989;48.810;9.208;2023-03-15T10:10:27;98986.91;;;8.28;50.20
7888;BME280;3989;48.810;9.208;2023-03-15T10:13:06;98946.06;;;8.11;49.81
7888;BME280;3989;48.810;9.208;2023-03-15T10:15:43;98907.94;;;7.86;50.04
7888;BME280;3989;48.810;9.208;2023-03-15T10:18:30;98924.41;;;8.24;50.06
7888;BME280;3989;48.810;9.208;2023-03-15T10:21:03;98956.34;;;8.32;50.04
7888;BME280;3989;48.810;9.208;2023-03-15T10:23:37;98912.97;;;7.98;51.23
7888;BME280;3989;48.810;9.208;2023-03-15T10:26:12;98965.50;;;8.37;50.69
7888;BME280;3989;48.810;9.208;2023-03-15T10:28:42;98969.72;;;8.22;50.58
7888;BME280;3989;48.810;9.208;2023-03-15T10:31:13;98959.38;;;8.11;51.04
7888;BME280;3989;48.810;9.208;2023-03-15T10:33:40;98876.28;;;7.67;50.17
7888;BME280;3989;48.810;9.208;2023-03-15T10:36:13;98984.16;;;8.46;50.45
7888;BME280;3989;48.810;9.208;2023-03-15T10:38:40;98846.22;;;8.01;49.80
7888;BME280;3989;48.810;9.208;2023-03-15T10:41:07;98925.91;;;8.92;48.31
7888;BME280;3989;48.810;9.208;2023-03-15T10:43:36;98945.41;;;9.01;47.72
7888;BME280;3989;48.810;9.208;2023-03-15T10:46:07;98832.41;;;8.39;45.76
7888;BME280;3989;48.810;9.208;2023-03-15T10:48:35;98908.63;;;8.88;46.61
7888;BME280;3989;48.810;9.208;2023-03-15T10:51:04;98943.25;;;9.37;46.69
7888;BME280;3989;48.810;9.208;2023-03-15T10:53:31;98975.47;;;9.82;45.35
7888;BME280;3989;48.810;9.208;2023-03-15T10:56:00;98965.13;;;10.03;46.01
7888;BME280;3989;48.810;9.208;2023-03-15T10:58:29;98949.63;;;10.07;44.82
7888;BME280;3989;48.810;9.208;2023-03-15T11:01:07;98949.53;;;9.68;45.50
7888;BME280;3989;48.810;9.208;2023-03-15T11:03:35;98955.03;;;9.59;46.92
7888;BME280;3989;48.810;9.208;2023-03-15T11:06:17;98966.22;;;9.30;47.05
7888;BME280;3989;48.810;9.208;2023-03-15T11:08:44;98965.16;;;8.98;48.10
7888;BME280;3989;48.810;9.208;2023-03-15T11:11:11;98985.78;;;8.80;48.69
7888;BME280;3989;48.810;9.208;2023-03-15T11:13:38;98937.97;;;8.21;48.43
7888;BME280;3989;48.810;9.208;2023-03-15T11:16:17;98981.34;;;8.21;49.77
7888;BME280;3989;48.810;9.208;2023-03-15T11:18:46;98976.13;;;8.04;51.17
7888;BME280;3989;48.810;9.208;2023-03-15T11:21:16;98953.38;;;7.75;53.48
7888;BME280;3989;48.810;9.208;2023-03-15T11:23:47;98953.22;;;7.51;54.44
7888;BME280;3989;48.810;9.208;2023-03-15T11:26:17;98945.44;;;7.58;56.64
7888;BME280;3989;48.810;9.208;2023-03-15T11:28:47;98914.94;;;7.62;60.91
7888;BME280;3989;48.810;9.208;2023-03-15T11:31:15;98886.56;;;7.62;60.53
7888;BME280;3989;48.810;9.208;2023-03-15T11:33:45;98963.88;;;8.11;57.88
7888;BME280;3989;48.810;9.208;2023-03-15T11:36:16;98911.22;;;7.80;57.55
7888;BME280;3989;48.810;9.208;2023-03-15T11:38:44;98958.16;;;7.98;54.17
7888;BME280;3989;48.810;9.208;2023-03-15T11:41:26;98961.69;;;7.80;53.13
7888;BME280;3989;48.810;9.208;2023-03-15T11:44:04;98788.81;;;6.80;51.66
7888;BME280;3989;48.810;9.208;2023-03-15T11:46:41;98963.47;;;7.98;50.05
7888;BME280;3989;48.810;9.208;2023-03-15T11:49:14;98946.25;;;8.10;49.59
7888;BME280;3989;48.810;9.208;2023-03-15T11:51:43;98855.06;;;7.42;47.06
7888;BME280;3989;48.810;9.208;2023-03-15T11:54:12;98954.69;;;8.05;48.23
7888;BME280;3989;48.810;9.208;2023-03-15T11:56:53;98959.38;;;8.11;48.15
7888;BME280;3989;48.810;9.208;2023-03-15T11:59:25;98948.16;;;7.91;47.14
7888;BME280;3989;48.810;9.208;2023-03-15T12:02:00;98958.94;;;7.90;47.25
7888;BME280;3989;48.810;9.208;2023-03-15T12:04:41;98822.34;;;7.07;47.56
7888;BME280;3989;48.810;9.208;2023-03-15T12:07:28;98907.00;;;7.70;49.04
7888;BME280;3989;48.810;9.208;2023-03-15T12:09:56;98961.53;;;8.08;49.00
7888;BME280;3989;48.810;9.208;2023-03-15T12:12:37;98803.69;;;7.25;48.98
7888;BME280;3989;48.810;9.208;2023-03-15T12:18:02;98918.53;;;7.78;49.55
7888;BME280;3989;48.810;9.208;2023-03-15T12:20:33;98950.22;;;8.06;49.04
7888;BME280;3989;48.810;9.208;2023-03-15T12:23:19;98917.94;;;7.67;50.39
7888;BME280;3989;48.810;9.208;2023-03-15T12:25:51;98830.66;;;7.38;49.99
7888;BME280;3989;48.810;9.208;2023-03-15T12:28:20;98962.84;;;8.37;50.33
7888;BME280;3989;48.810;9.208;2023-03-15T12:30:54;98970.59;;;8.65;49.75
7888;BME280;3989;48.810;9.208;2023-03-15T12:33:24;98967.94;;;8.73;49.34
7888;BME280;3989;48.810;9.208;2023-03-15T12:35:58;98986.06;;;8.69;50.01
7888;BME280;3989;48.810;9.208;2023-03-15T12:38:31;98960.78;;;8.65;50.80
7888;BME280;3989;48.810;9.208;2023-03-15T12:41:06;98936.09;;;8.39;51.17
7888;BME280;3989;48.810;9.208;2023-03-15T12:43:41;98971.06;;;8.60;52.00
7888;BME280;3989;48.810;9.208;2023-03-15T12:46:52;98964.94;;;8.68;50.65
7888;BME280;3989;48.810;9.208;2023-03-15T12:49:31;98926.13;;;8.33;51.39
7888;BME280;3989;48.810;9.208;2023-03-15T12:52:00;98926.06;;;7.91;55.23
7888;BME280;3989;48.810;9.208;2023-03-15T12:54:31;98986.69;;;7.96;64.83
7888;BME280;3989;48.810;9.208;2023-03-15T12:57:00;98904.78;;;7.31;76.26
7888;BME280;3989;48.810;9.208;2023-03-15T12:59:31;98979.63;;;7.35;84.86
7888;BME280;3989;48.810;9.208;2023-03-15T13:02:01;98944.94;;;7.11;89.51
7888;BME280;3989;48.810;9.208;2023-03-15T13:04:30;98970.56;;;7.02;95.13
7888;BME280;3989;48.810;9.208;2023-03-15T13:07:22;99012.63;;;7.32;94.70
7888;BME280;3989;48.810;9.208;2023-03-15T13:10:05;98910.28;;;6.59;95.08
7888;BME280;3989;48.810;9.208;2023-03-15T13:12:39;99013.56;;;6.61;100.00
7888;BME280;3989;48.810;9.208;2023-03-15T13:15:11;98968.69;;;6.22;100.00
7888;BME280;3989;48.810;9.208;2023-03-15T13:17:48;98795.72;;;5.48;100.00
7888;BME280;3989;48.810;9.208;2023-03-15T13:20:39;98948.16;;;6.69;100.00
7888;BME280;3989;48.810;9.208;2023-03-15T13:23:13;99001.31;;;6.95;100.00
7888;BME280;3989;48.810;9.208;2023-03-15T13:25:56;98941.06;;;6.88;100.00
7888;BME280;3989;48.810;9.208;2023-03-15T13:28:31;98937.88;;;7.02;98.88
7888;BME280;3989;48.810;9.208;2023-03-15T13:31:09;98842.19;;;6.42;98.90
7888;BME280;3989;48.810;9.208;2023-03-15T13:33:37;98992.81;;;7.45;96.19
7888;BME280;3989;48.810;9.208;2023-03-15T13:36:11;98860.38;;;6.55;94.61
7888;BME280;3989;48.810;9.208;2023-03-15T13:38:40;98929.09;;;6.83;90.52
7888;BME280;3989;48.810;9.208;2023-03-15T13:41:16;98877.94;;;6.56;90.12
7888;BME280;3989;48.810;9.208;2023-03-15T13:43:43;98859.50;;;6.19;92.60
7888;BME280;3989;48.810;9.208;2023-03-15T13:46:10;98999.38;;;6.97;90.90
7888;BME280;3989;48.810;9.208;2023-03-15T13:48:39;98909.03;;;5.91;94.42
7888;BME280;3989;48.810;9.208;2023-03-15T13:51:12;98950.31;;;5.74;100.00
7888;BME280;3989;48.810;9.208;2023-03-15T13:53:45;99014.13;;;5.91;100.00
7888;BME280;3989;48.810;9.208;2023-03-15T13:56:16;98924.38;;;5.03;100.00
7888;BME280;3989;48.810;9.208;2023-03-15T13:58:44;98927.88;;;4.74;100.00
7888;BME280;3989;48.810;9.208;2023-03-15T14:01:14;99019.59;;;4.84;100.00
7888;BME280;3989;48.810;9.208;2023-03-15T14:40:15;98971.94;;;5.60;100.00
7888;BME280;3989;48.810;9.208;2023-03-15T14:42:54;98958.75;;;5.32;100.00
7888;BME280;3989;48.810;9.208;2023-03-15T14:45:24;98808.38;;;4.33;100.00
7888;BME280;3989;48.810;9.208;2023-03-15T14:47:59;98828.94;;;4.10;100.00
